Time;durP1;ratioP1;P1;durP2;ratioP2;P2;SDS_P1;SDS_P2;PMS_P1;PMS_P2;Temp;Humidity;BMP_temperature;BMP_pressure;BME280_temperature;BME280_humidity;BME280_pressure;Samples;Min_cycle;Max_cycle;Signal;HPM_P1;HPM_P2
2023/04/13 00:01:10;;;;;;;2.05;0.80;;;;;;;10.81;53.53;99427.13;4956122;28;124118;-79
2023/04/13 00:03:38;;;;;;;2.45;0.90;;;;;;;10.80;53.43;99425.44;4947937;28;124128;-78
2023/04/13 00:06:09;;;;;;;2.20;0.80;;;;;;;10.81;53.52;99421.81;4963374;28;119891;-78
2023/04/13 00:08:37;;;;;;;3.08;1.00;;;;;;;10.79;53.85;99413.13;4954781;28;119948;-78
2023/04/13 00:11:06;;;;;;;1.65;0.90;;;;;;;10.76;53.74;99416.00;4964436;28;124074;-78
2023/04/13 00:13:39;;;;;;;2.38;1.00;;;;;;;10.71;53.77;99406.56;4956577;28;123351;-79
2023/04/13 00:16:12;;;;;;;3.60;1.02;;;;;;;10.67;53.90;99398.94;4940472;28;120464;-78
2023/04/13 00:18:39;;;;;;;3.00;1.10;;;;;;;10.62;54.24;99401.91;4943866;28;118199;-79
2023/04/13 00:21:06;;;;;;;2.80;0.95;;;;;;;10.60;54.29;99406.44;4958913;28;124812;-78
2023/04/13 00:23:34;;;;;;;1.60;0.90;;;;;;;10.57;54.03;99390.78;4964891;28;123668;-78
2023/04/13 00:26:02;;;;;;;3.72;1.02;;;;;;;10.54;54.40;99388.34;4957953;28;118648;-79
2023/04/13 00:28:29;;;;;;;1.92;0.77;;;;;;;10.52;54.58;99390.25;4948571;28;116877;-79
2023/04/13 00:30:58;;;;;;;4.70;1.05;;;;;;;10.49;54.61;99395.75;4956303;28;124678;-79
2023/04/13 00:33:25;;;;;;;3.17;0.80;;;;;;;10.49;54.50;99385.16;4943931;28;123145;-78
2023/04/13 00:35:52;;;;;;;2.15;1.00;;;;;;;10.48;54.72;99388.78;4965076;28;119256;-78
2023/04/13 00:38:19;;;;;;;6.22;1.20;;;;;;;10.48;54.91;99380.81;4949589;28;119646;-78
2023/04/13 00:40:47;;;;;;;3.80;1.20;;;;;;;10.48;55.06;99383.47;4943469;28;123175;-79
2023/04/13 00:43:15;;;;;;;1.20;0.73;;;;;;;10.49;54.88;99385.16;4958758;28;123746;-79
2023/04/13 00:45:43;;;;;;;3.08;1.00;;;;;;;10.49;54.90;99374.56;4953825;28;118951;-78
2023/04/13 00:48:11;;;;;;;4.30;1.00;;;;;;;10.50;55.21;99376.28;4962249;28;118479;-79
2023/04/13 00:50:40;;;;;;;2.47;1.08;;;;;;;10.52;55.11;99374.38;4936347;28;124616;-79
2023/04/13 00:53:11;;;;;;;2.78;0.98;;;;;;;10.54;55.10;99369.81;4961151;28;124191;-79
2023/04/13 00:55:41;;;;;;;3.00;1.10;;;;;;;10.58;55.13;99363.34;4950684;28;119115;-79
2023/04/13 00:58:09;;;;;;;1.95;0.85;;;;;;;10.62;55.41;99370.13;4966841;28;118145;-79
2023/04/13 01:00:41;;;;;;;3.67;1.05;;;;;;;10.63;55.46;99366.53;4946130;28;122729;-77
2023/04/13 01:03:11;;;;;;;2.78;1.00;;;;;;;10.65;55.26;99369.91;4946002;28;123502;-79
2023/04/13 01:05:49;;;;;;;1.27;0.90;;;;;;;10.68;55.43;99374.16;4960815;28;119544;-79
2023/04/13 01:08:44;;;;;;;1.95;0.80;;;;;;;10.69;55.34;99370.56;4966882;28;119274;-79
2023/04/13 01:11:31;;;;;;;2.75;0.98;;;;;;;10.69;55.35;99376.69;4957618;28;123609;-78
2023/04/13 01:14:07;;;;;;;2.42;1.00;;;;;;;10.70;55.51;99362.50;4966898;28;123396;-78
2023/04/13 01:16:43;;;;;;;2.58;0.90;;;;;;;10.71;55.58;99369.50;4947860;28;118940;-79
2023/04/13 01:19:31;;;;;;;2.72;0.95;;;;;;;10.71;55.84;99369.50;4958727;28;118131;-79
2023/04/13 01:22:01;;;;;;;4.88;1.10;;;;;;;10.75;55.63;99364.81;4963015;28;123217;-79
2023/04/13 01:24:52;;;;;;;1.67;0.80;;;;;;;10.77;55.81;99362.09;4944392;28;123193;-79
2023/04/13 01:27:41;;;;;;;2.55;0.85;;;;;;;10.78;55.65;99369.09;4938250;28;119058;-79
2023/04/13 01:30:10;;;;;;;2.58;0.95;;;;;;;10.79;55.69;99370.75;4932572;28;118830;-79
2023/04/13 01:32:38;;;;;;;2.33;1.10;;;;;;;10.82;55.85;99365.25;4938663;28;124390;-79
2023/04/13 01:35:09;;;;;;;4.60;1.10;;;;;;;10.83;55.70;99373.09;4923613;28;122318;-79
2023/04/13 01:37:42;;;;;;;3.55;0.90;;;;;;;10.85;56.10;99375.63;4940207;28;118836;-79
2023/04/13 01:40:12;;;;;;;4.00;1.00;;;;;;;10.85;56.19;99370.31;4948155;28;117395;-79
2023/04/13 01:42:44;;;;;;;5.78;0.90;;;;;;;10.88;55.95;99372.78;4941239;28;123544;-79
2023/04/13 01:45:21;;;;;;;2.55;0.85;;;;;;;10.88;55.85;99383.38;4957273;28;124035;-79
2023/04/13 01:48:14;;;;;;;3.38;1.08;;;;;;;10.90;55.94;99373.50;4948516;28;119460;-79
2023/04/13 01:51:16;;;;;;;4.22;0.93;;;;;;;10.91;56.10;99375.22;4944094;28;117787;-79
2023/04/13 01:53:54;;;;;;;3.58;0.93;;;;;;;10.92;56.06;99376.91;4940230;28;122415;-79
2023/04/13 01:56:22;;;;;;;3.87;0.90;;;;;;;10.93;55.79;99373.31;4933853;28;123123;-79
2023/04/13 01:58:59;;;;;;;4.22;1.13;;;;;;;10.95;56.06;99386.44;4941934;28;119224;-77
2023/04/13 02:01:28;;;;;;;3.15;1.00;;;;;;;10.96;56.09;99383.66;4938966;28;118140;-78
2023/04/13 02:03:57;;;;;;;3.30;1.00;;;;;;;10.97;55.93;99395.97;4938566;28;122442;-78
2023/04/13 02:06:30;;;;;;;3.17;1.00;;;;;;;10.96;56.16;99402.22;4939446;28;123079;-78
2023/04/13 02:08:58;;;;;;;4.32;0.90;;;;;;;10.95;56.15;99397.88;4934329;28;118383;-78
2023/04/13 02:11:27;;;;;;;4.80;1.15;;;;;;;10.96;56.12;99410.16;4946729;28;116338;-78
2023/04/13 02:13:56;;;;;;;6.15;1.25;;;;;;;10.96;56.27;99409.31;4935244;28;124830;-78
2023/04/13 02:16:24;;;;;;;3.92;1.00;;;;;;;10.96;56.26;99415.44;4963478;28;123605;-78
2023/04/13 02:18:51;;;;;;;4.57;1.10;;;;;;;10.95;56.39;99424.38;4957943;28;120485;-77
2023/04/13 02:21:20;;;;;;;5.18;1.20;;;;;;;10.94;56.56;99412.06;4954659;28;118701;-77
2023/04/13 02:23:51;;;;;;;3.70;1.10;;;;;;;10.91;56.44;99417.59;4957777;28;126115;-77
2023/04/13 02:26:18;;;;;;;5.28;1.30;;;;;;;10.92;56.69;99424.56;4955152;28;124451;-78
2023/04/13 02:28:48;;;;;;;4.40;1.15;;;;;;;10.90;56.85;99431.78;4942342;28;118730;-78
2023/04/13 02:31:18;;;;;;;3.65;1.10;;;;;;;10.87;56.83;99432.84;4955010;28;118104;-78
2023/04/13 02:33:46;;;;;;;5.30;1.48;;;;;;;10.86;57.11;99430.31;4959269;28;123724;-78
2023/04/13 02:36:16;;;;;;;3.90;1.10;;;;;;;10.85;57.00;99439.19;4953089;28;123641;-78
2023/04/13 02:38:51;;;;;;;5.55;1.30;;;;;;;10.84;57.05;99442.81;4945997;28;118517;-78
2023/04/13 02:41:25;;;;;;;5.40;1.40;;;;;;;10.80;57.04;99436.03;4956845;28;118781;-78
2023/04/13 02:43:53;;;;;;;4.68;1.15;;;;;;;10.82;57.37;99439.41;4954433;28;123759;-78
2023/04/13 02:46:23;;;;;;;4.13;1.20;;;;;;;10.80;57.22;99441.31;4955321;28;122424;-78
2023/04/13 02:49:13;;;;;;;3.67;1.10;;;;;;;10.79;57.25;99460.81;4961363;28;119992;-78
2023/04/13 02:51:51;;;;;;;4.70;1.30;;;;;;;10.77;57.25;99458.25;4967714;28;119367;-79
2023/04/13 02:54:26;;;;;;;7.25;1.50;;;;;;;10.77;57.40;99460.06;4940322;28;123758;-79
2023/04/13 02:56:54;;;;;;;8.68;1.30;;;;;;;10.77;57.46;99462.72;4960777;28;123601;-79
2023/04/13 02:59:22;;;;;;;2.97;1.00;;;;;;;10.77;57.41;99468.84;4949280;28;118344;-79
2023/04/13 03:01:49;;;;;;;4.93;1.30;;;;;;;10.79;57.74;99476.69;4955894;28;117840;-78
2023/04/13 03:04:19;;;;;;;3.60;1.20;;;;;;;10.79;57.64;99482.00;4933641;28;122747;-79
2023/04/13 03:06:47;;;;;;;5.28;1.58;;;;;;;10.79;57.66;99488.13;4956393;28;123108;-79
2023/04/13 03:09:15;;;;;;;3.13;1.08;;;;;;;10.79;57.81;99500.53;4955928;28;117765;-79
2023/04/13 03:11:47;;;;;;;5.05;1.40;;;;;;;10.79;57.66;99511.13;4953104;28;117684;-78
2023/04/13 03:14:21;;;;;;;3.58;1.30;;;;;;;10.79;57.62;99508.47;4956641;28;124104;-78
2023/04/13 03:16:57;;;;;;;5.75;1.45;;;;;;;10.78;57.83;99506.78;4957966;28;122236;-79
2023/04/13 03:19:34;;;;;;;5.00;1.30;;;;;;;10.79;57.93;99517.25;4973152;28;118747;-79
2023/04/13 03:22:01;;;;;;;4.20;1.30;;;;;;;10.80;58.06;99520.78;4973595;28;118808;-79
2023/04/13 03:24:29;;;;;;;4.43;1.50;;;;;;;10.80;57.97;99526.91;4942824;28;123820;-79
2023/04/13 03:27:01;;;;;;;3.33;1.63;;;;;;;10.82;57.91;99534.75;4963312;28;124805;-78
2023/04/13 03:29:34;;;;;;;4.82;1.45;;;;;;;10.83;58.26;99531.16;4970822;28;122446;-78
2023/04/13 03:32:01;;;;;;;4.45;1.67;;;;;;;10.84;58.05;99532.84;4975703;28;119383;-78
2023/04/13 03:34:32;;;;;;;5.07;1.50;;;;;;;10.83;58.31;99537.31;4959923;28;125334;-78
2023/04/13 03:37:05;;;;;;;6.25;1.30;;;;;;;10.82;57.86;99540.06;4954553;28;122997;-78
2023/04/13 03:39:33;;;;;;;4.10;1.65;;;;;;;10.81;58.19;99543.66;4973424;28;120622;-80
2023/04/13 03:42:01;;;;;;;3.22;1.48;;;;;;;10.79;57.93;99540.25;4959608;28;119389;-79
2023/04/13 03:44:30;;;;;;;4.50;1.40;;;;;;;10.78;58.13;99546.53;4940456;28;123866;-79
2023/04/13 03:46:57;;;;;;;4.25;1.40;;;;;;;10.77;58.17;99540.34;4975585;28;124151;-78
2023/04/13 03:49:29;;;;;;;6.32;1.40;;;;;;;10.76;58.00;99548.44;4941817;28;118925;-78
2023/04/13 03:51:57;;;;;;;4.00;1.50;;;;;;;10.75;58.08;99559.94;4952845;28;117987;-78
2023/04/13 03:54:27;;;;;;;2.78;1.30;;;;;;;10.75;58.27;99565.25;4933420;28;123431;-79
2023/04/13 03:56:59;;;;;;;3.15;1.20;;;;;;;10.76;58.07;99577.56;4951642;28;122371;-79
2023/04/13 03:59:29;;;;;;;2.38;1.27;;;;;;;10.75;58.40;99573.19;4955728;28;118859;-79
2023/04/13 04:01:56;;;;;;;4.20;1.60;;;;;;;10.76;58.22;99577.56;4951481;28;118313;-79
2023/04/13 04:04:24;;;;;;;2.20;1.55;;;;;;;10.75;58.34;99575.84;4955258;28;124644;-78
2023/04/13 04:06:52;;;;;;;4.18;1.50;;;;;;;10.72;58.19;99576.91;4952958;28;123850;-78
2023/04/13 04:09:19;;;;;;;5.85;1.58;;;;;;;10.68;58.30;99576.25;4958557;28;118847;-79
2023/04/13 04:11:47;;;;;;;3.33;1.70;;;;;;;10.66;58.19;99582.59;4956707;28;118912;-78
2023/04/13 04:14:22;;;;;;;4.00;1.90;;;;;;;10.63;57.94;99588.94;4943198;28;123406;-78
2023/04/13 04:16:56;;;;;;;3.75;2.17;;;;;;;10.61;57.79;99582.91;4957882;28;126339;-78
2023/04/13 04:19:23;;;;;;;4.60;2.08;;;;;;;10.58;57.95;99601.63;4966378;28;118418;-78
2023/04/13 04:21:51;;;;;;;4.13;2.30;;;;;;;10.54;57.82;99600.13;4974751;28;119861;-78
2023/04/13 04:24:21;;;;;;;4.55;2.15;;;;;;;10.51;58.10;99600.34;4958354;28;123268;-79
2023/04/13 04:26:54;;;;;;;6.35;2.13;;;;;;;10.47;57.87;99605.00;4940045;28;124417;-78
2023/04/13 04:29:28;;;;;;;4.18;1.92;;;;;;;10.44;58.19;99620.22;4948462;28;119202;-79
2023/04/13 04:31:57;;;;;;;5.73;2.27;;;;;;;10.40;57.59;99608.13;4951753;28;118535;-78
2023/04/13 04:34:24;;;;;;;6.45;2.60;;;;;;;10.37;57.82;99613.59;4945537;28;123829;-79
2023/04/13 04:36:52;;;;;;;4.78;2.28;;;;;;;10.35;58.08;99618.16;4967189;28;123243;-79
2023/04/13 04:39:22;;;;;;;4.28;2.40;;;;;;;10.31;58.00;99626.28;4961670;28;118596;-79
2023/04/13 04:42:01;;;;;;;8.50;2.75;;;;;;;10.30;57.98;99629.88;4950701;28;117156;-78
2023/04/13 04:44:30;;;;;;;6.05;2.35;;;;;;;10.27;58.26;99630.03;4957905;28;122682;-79
2023/04/13 04:47:03;;;;;;;5.22;2.58;;;;;;;10.27;58.33;99630.03;4970449;28;125195;-78
2023/04/13 04:49:35;;;;;;;7.43;2.70;;;;;;;10.26;57.90;99628.31;4972292;28;119085;-78
2023/04/13 04:52:03;;;;;;;6.53;2.83;;;;;;;10.26;58.06;99633.63;4959662;28;118544;-78
2023/04/13 04:54:30;;;;;;;7.65;2.72;;;;;;;10.25;58.23;99642.53;4970501;28;123327;-79
2023/04/13 04:57:00;;;;;;;6.60;2.90;;;;;;;10.25;58.01;99647.81;4955482;28;123286;-78
2023/04/13 04:59:29;;;;;;;7.72;2.70;;;;;;;10.23;58.09;99655.00;4935622;28;118171;-78
2023/04/13 05:02:01;;;;;;;6.25;2.50;;;;;;;10.22;58.30;99648.00;4935827;28;118570;-78
2023/04/13 05:04:28;;;;;;;6.70;2.55;;;;;;;10.21;58.13;99656.91;4977025;28;123280;-78
2023/04/13 05:06:56;;;;;;;8.90;2.75;;;;;;;10.22;58.48;99663.88;4955360;28;123591;-78
2023/04/13 05:09:25;;;;;;;6.03;2.60;;;;;;;10.23;58.23;99665.59;4953532;28;118769;-79
2023/04/13 05:11:55;;;;;;;5.13;2.50;;;;;;;10.23;58.20;99664.75;4955911;28;118317;-79
2023/04/13 05:14:22;;;;;;;6.50;2.42;;;;;;;10.24;58.45;99667.25;4957692;28;123189;-77
2023/04/13 05:16:50;;;;;;;7.00;2.63;;;;;;;10.24;58.38;99667.25;4939767;28;123350;-77
2023/04/13 05:19:28;;;;;;;8.15;2.30;;;;;;;10.25;58.52;99674.28;4971949;28;119540;-77
2023/04/13 05:22:01;;;;;;;5.20;2.40;;;;;;;10.26;58.54;99681.25;4975214;28;118510;-77
2023/04/13 05:24:35;;;;;;;5.70;2.40;;;;;;;10.27;58.29;99677.66;4969387;28;123651;-77
2023/04/13 05:27:08;;;;;;;4.55;2.45;;;;;;;10.29;58.52;99681.06;4954219;28;122782;-77
2023/04/13 05:29:36;;;;;;;4.72;2.58;;;;;;;10.31;58.32;99684.50;4975442;28;118559;-77
2023/04/13 05:32:04;;;;;;;6.75;2.97;;;;;;;10.32;58.41;99686.22;4955476;28;118220;-79
2023/04/13 05:34:34;;;;;;;5.82;2.75;;;;;;;10.35;58.25;99689.59;4960526;28;125198;-77
2023/04/13 05:37:10;;;;;;;7.85;2.70;;;;;;;10.37;58.30;99693.00;4976320;28;123681;-77
2023/04/13 05:39:38;;;;;;;7.20;2.83;;;;;;;10.40;58.33;99698.13;4941473;28;119671;-78
2023/04/13 05:42:06;;;;;;;5.88;2.78;;;;;;;10.43;58.46;99695.25;4960444;28;117374;-77
2023/04/13 05:44:37;;;;;;;7.50;3.08;;;;;;;10.47;58.55;99699.41;4957456;28;124958;-77
2023/04/13 05:47:05;;;;;;;5.85;2.97;;;;;;;10.50;58.42;99715.13;4973683;28;123609;-77
2023/04/13 05:49:33;;;;;;;6.95;3.08;;;;;;;10.53;58.37;99714.94;4972944;28;119355;-77
2023/04/13 05:52:00;;;;;;;5.38;2.78;;;;;;;10.58;58.25;99726.06;4944289;28;118765;-79
2023/04/13 05:54:38;;;;;;;7.85;3.15;;;;;;;10.60;58.51;99726.81;4953746;28;126264;-77
2023/04/13 05:57:05;;;;;;;5.97;3.13;;;;;;;10.63;58.43;99729.28;4976477;28;124597;-78
2023/04/13 05:59:34;;;;;;;4.85;2.88;;;;;;;10.65;58.17;99735.31;4961455;28;120739;-77
2023/04/13 06:02:03;;;;;;;7.40;3.25;;;;;;;10.68;58.40;99740.44;4964158;28;118216;-77
2023/04/13 06:04:31;;;;;;;8.35;3.38;;;;;;;10.75;58.42;99742.69;4977691;28;122983;-77
2023/04/13 06:06:58;;;;;;;7.63;3.08;;;;;;;10.80;58.51;99744.09;4978354;28;124261;-77
2023/04/13 06:09:26;;;;;;;5.45;3.10;;;;;;;10.86;58.30;99756.09;4972939;28;120946;-77
2023/04/13 06:11:53;;;;;;;6.47;3.35;;;;;;;10.90;58.19;99757.59;4972079;28;120385;-77
2023/04/13 06:14:21;;;;;;;8.75;2.83;;;;;;;10.95;58.51;99768.75;4940708;28;123653;-78
2023/04/13 06:16:48;;;;;;;6.15;3.45;;;;;;;10.97;58.37;99766.84;4944477;28;123333;-77
2023/04/13 06:19:15;;;;;;;6.13;3.03;;;;;;;11.01;58.29;99773.66;4982787;28;118760;-77
2023/04/13 06:21:43;;;;;;;7.20;2.83;;;;;;;11.05;58.27;99785.75;4955197;28;120410;-77
2023/04/13 06:24:10;;;;;;;4.72;2.22;;;;;;;11.06;58.04;99787.47;4973946;28;124528;-78
2023/04/13 06:26:38;;;;;;;8.40;2.40;;;;;;;11.07;58.01;99783.84;4975204;28;122206;-78
2023/04/13 06:38:09;;;;;;;4.50;1.73;;;;;;;11.09;57.81;99803.19;4942767;28;100899;-75
2023/04/13 06:40:48;;;;;;;4.13;1.60;;;;;;;11.12;57.90;99806.59;4933200;28;118454;-74
2023/04/13 06:43:19;;;;;;;4.28;1.63;;;;;;;11.14;58.13;99809.97;4925136;28;118343;-74
2023/04/13 06:46:13;;;;;;;6.45;1.58;;;;;;;11.17;58.11;99804.47;4907404;28;123615;-77
2023/04/13 06:48:42;;;;;;;5.47;1.60;;;;;;;11.19;58.03;99823.75;4915803;28;124388;-75
2023/04/13 06:51:11;;;;;;;4.97;1.55;;;;;;;11.21;58.04;99820.09;4924841;28;118415;-74
2023/04/13 06:53:40;;;;;;;6.78;1.80;;;;;;;11.26;57.98;99827.72;4913329;28;118159;-75
2023/04/13 06:56:08;;;;;;;3.40;1.70;;;;;;;11.29;58.22;99831.03;4927088;28;123632;-74
2023/04/13 06:58:36;;;;;;;4.97;1.77;;;;;;;11.34;58.03;99837.84;4913196;28;123142;-74
2023/04/13 07:01:05;;;;;;;3.22;1.80;;;;;;;11.37;58.25;99838.50;4907799;28;119600;-74
2023/04/13 07:03:35;;;;;;;4.43;2.08;;;;;;;11.39;57.99;99836.59;4923623;28;119020;-73
2023/04/13 07:06:05;;;;;;;6.28;2.03;;;;;;;11.41;58.04;99845.28;4924995;28;123304;-74
2023/04/13 07:08:35;;;;;;;5.35;1.95;;;;;;;11.42;57.92;99841.69;4923837;28;124119;-73
2023/04/13 07:11:02;;;;;;;5.53;2.10;;;;;;;11.44;57.79;99850.41;4922705;28;119132;-72
2023/04/13 07:13:36;;;;;;;4.15;2.13;;;;;;;11.44;57.93;99850.41;4911934;28;118489;-74
2023/04/13 07:16:08;;;;;;;4.22;2.28;;;;;;;11.43;57.76;99854.03;4910147;28;123224;-74
2023/04/13 07:18:37;;;;;;;6.10;2.33;;;;;;;11.42;57.88;99857.63;4916750;28;123454;-74
2023/04/13 07:21:09;;;;;;;5.45;2.45;;;;;;;11.41;57.83;99865.66;4928853;28;119589;-74
2023/04/13 07:23:51;;;;;;;5.90;2.33;;;;;;;11.39;58.06;99863.09;4910369;28;117636;-74
2023/04/13 07:26:21;;;;;;;5.05;2.22;;;;;;;11.39;57.89;99873.69;4912319;28;123355;-73
2023/04/13 07:28:49;;;;;;;4.85;2.83;;;;;;;11.41;57.87;99870.97;4906567;28;123550;-73
2023/04/13 07:31:17;;;;;;;5.72;2.60;;;;;;;11.42;58.16;99873.53;4909355;28;119456;-72
2023/04/13 07:33:47;;;;;;;6.97;2.90;;;;;;;11.45;58.02;99873.34;4909745;28;118241;-72
2023/04/13 07:36:22;;;;;;;6.60;3.00;;;;;;;11.50;58.07;99870.38;4913911;28;123138;-74
2023/04/13 07:38:53;;;;;;;6.72;2.58;;;;;;;11.56;58.21;99885.03;4897037;28;122981;-72
2023/04/13 07:41:26;;;;;;;6.30;2.78;;;;;;;11.61;58.38;99882.94;4911962;28;118371;-73
2023/04/13 07:43:58;;;;;;;10.23;2.80;;;;;;;11.68;58.24;99889.56;4923566;28;118111;-74
2023/04/13 07:46:26;;;;;;;6.57;2.58;;;;;;;11.74;58.29;99889.16;4894433;28;123666;-73
2023/04/13 07:48:55;;;;;;;9.10;2.70;;;;;;;11.78;58.10;99893.31;4920597;28;124249;-73
2023/04/13 07:51:26;;;;;;;6.50;2.35;;;;;;;11.83;57.93;99893.84;4899668;28;120032;-72
2023/04/13 07:53:54;;;;;;;6.45;2.80;;;;;;;11.88;58.11;99897.06;4918776;28;119697;-74
2023/04/13 07:56:24;;;;;;;5.47;2.50;;;;;;;11.96;58.03;99909.00;4909099;28;123729;-74
2023/04/13 07:58:57;;;;;;;8.75;2.55;;;;;;;12.03;58.16;99904.97;4921621;28;123460;-74
2023/04/13 08:01:25;;;;;;;7.90;2.72;;;;;;;12.12;58.27;99901.72;4898032;28;118800;-74
2023/04/13 08:03:56;;;;;;;5.85;2.47;;;;;;;12.20;58.05;99910.00;4911237;28;118057;-73
2023/04/13 08:06:26;;;;;;;12.55;3.05;;;;;;;12.27;57.82;99919.28;4906403;28;123209;-73
2023/04/13 08:08:53;;;;;;;5.93;2.60;;;;;;;12.32;57.99;99915.44;4890691;28;123011;-74
2023/04/13 08:11:23;;;;;;;12.18;3.03;;;;;;;12.40;57.71;99923.78;4929239;28;119441;-74
2023/04/13 08:13:56;;;;;;;11.02;3.08;;;;;;;12.44;57.63;99931.41;4911735;28;118320;-75
2023/04/13 08:16:26;;;;;;;11.15;2.95;;;;;;;12.48;57.53;99932.06;4915991;28;123258;-73
2023/04/13 08:18:55;;;;;;;7.97;2.80;;;;;;;12.50;57.19;99943.44;4903028;28;123421;-73
2023/04/13 08:21:25;;;;;;;12.88;3.03;;;;;;;12.51;57.33;99936.31;4908709;28;96824;-74
2023/04/13 08:23:53;;;;;;;9.02;2.67;;;;;;;12.51;57.13;99942.50;4908504;28;118229;-74
2023/04/13 08:26:21;;;;;;;9.80;2.80;;;;;;;12.54;57.12;99947.56;4913959;28;123477;-74
2023/04/13 08:28:51;;;;;;;6.20;2.88;;;;;;;12.59;57.26;99950.78;4920926;28;124293;-73
2023/04/13 08:31:19;;;;;;;8.13;2.60;;;;;;;12.66;57.16;99968.00;4921166;28;118979;-73
2023/04/13 08:33:52;;;;;;;10.65;2.88;;;;;;;12.74;57.20;99963.97;4909951;28;118275;-74
2023/04/13 08:36:21;;;;;;;6.57;2.30;;;;;;;12.79;56.97;99972.47;4921821;28;123396;-72
2023/04/13 08:38:53;;;;;;;7.05;2.42;;;;;;;12.85;57.10;99978.22;4920938;28;123805;-73
2023/04/13 08:41:22;;;;;;;9.85;2.67;;;;;;;12.93;56.95;99975.03;4921223;28;119919;-72
2023/04/13 08:43:53;;;;;;;7.45;2.50;;;;;;;13.04;56.95;99983.13;4913720;28;119521;-74
2023/04/13 08:46:23;;;;;;;9.88;2.35;;;;;;;13.16;56.90;99985.88;4928523;28;122927;-73
2023/04/13 08:48:58;;;;;;;9.32;2.60;;;;;;;13.22;56.75;99990.78;4912852;28;122945;-74
2023/04/13 08:51:35;;;;;;;6.13;2.40;;;;;;;13.32;56.95;100002.53;4907486;28;121455;-72
2023/04/13 08:54:02;;;;;;;9.48;2.28;;;;;;;13.42;56.58;100003.56;4923016;28;118948;-73
2023/04/13 08:56:38;;;;;;;11.68;2.40;;;;;;;13.49;56.33;100013.78;4930987;28;123533;-73
2023/04/13 08:59:21;;;;;;;;;;;;;;;13.49;56.17;100024.44;4928796;28;123567;-74
2023/04/13 09:01:53;;;;;;;11.60;2.10;;;;;;;13.49;55.93;100024.44;4914865;28;119437;-74
2023/04/13 09:04:25;;;;;;;8.75;2.25;;;;;;;13.47;55.83;100021.00;4919099;28;118533;-73
2023/04/13 09:06:58;;;;;;;8.70;2.08;;;;;;;13.44;55.63;100030.91;4910331;28;127065;-74
2023/04/13 09:09:27;;;;;;;12.02;2.05;;;;;;;13.43;55.73;100034.53;4930333;28;123043;-73
2023/04/13 09:11:55;;;;;;;8.77;2.30;;;;;;;13.44;55.61;100038.88;4909675;28;119041;-74
2023/04/13 09:14:23;;;;;;;13.27;2.25;;;;;;;13.50;55.46;100042.06;4905946;28;118217;-73
2023/04/13 09:16:52;;;;;;;10.00;2.10;;;;;;;13.51;55.31;100046.44;4907909;28;123692;-74
2023/04/13 09:19:31;;;;;;;11.07;1.95;;;;;;;13.56;55.10;100052.28;4912982;28;126584;-74
2023/04/13 09:22:12;;;;;;;7.40;1.88;;;;;;;13.61;55.16;100050.16;4909690;28;118801;-74
2023/04/13 09:24:40;;;;;;;10.32;2.08;;;;;;;13.66;54.74;100058.66;4926505;28;119049;-74
2023/04/13 09:27:36;;;;;;;9.40;2.30;;;;;;;13.73;54.82;100065.25;4928375;28;123951;-74
2023/04/13 09:30:04;;;;;;;11.15;2.00;;;;;;;13.79;54.75;100075.47;4927851;28;123935;-73
2023/04/13 09:32:31;;;;;;;6.28;1.83;;;;;;;13.83;54.66;100076.94;4924584;28;120157;-74
2023/04/13 09:35:06;;;;;;;7.85;2.20;;;;;;;13.90;54.35;100076.50;4927796;28;120204;-75
2023/04/13 09:37:35;;;;;;;;;;;;;;;13.92;54.82;100085.22;4927798;28;123794;-74
2023/04/13 09:40:17;;;;;;;10.52;2.38;;;;;;;13.98;54.47;100090.13;4923704;28;124195;-74
2023/04/13 09:43:01;;;;;;;9.77;2.50;;;;;;;14.03;54.19;100093.28;4928117;28;119344;-75
2023/04/13 09:45:47;;;;;;;8.52;2.28;;;;;;;14.07;54.14;100091.28;4920451;28;118862;-75
2023/04/13 09:48:21;;;;;;;10.48;2.55;;;;;;;14.08;53.89;100096.50;4913457;28;123201;-75
2023/04/13 09:51:05;;;;;;;11.40;2.30;;;;;;;14.08;53.74;100101.81;4925937;28;124084;-75
2023/04/13 09:53:45;;;;;;;9.85;2.30;;;;;;;14.10;53.44;100110.53;4902897;28;118880;-74
2023/04/13 09:56:14;;;;;;;8.48;1.92;;;;;;;14.08;53.36;100115.13;4925644;28;119045;-75
2023/04/13 09:58:52;;;;;;;6.68;1.88;;;;;;;14.05;53.07;100120.66;4927082;28;124415;-74
2023/04/13 10:01:20;;;;;;;10.35;2.05;;;;;;;14.04;52.86;100129.63;4926779;28;122450;-74
2023/04/13 10:03:53;;;;;;;8.25;2.10;;;;;;;14.01;52.96;100121.84;4918445;28;119424;-75
2023/04/13 10:06:21;;;;;;;12.15;2.30;;;;;;;13.99;53.07;100134.41;4924385;28;118638;-75
2023/04/13 10:08:48;;;;;;;5.70;1.80;;;;;;;13.99;53.05;100129.09;4905772;28;123592;-75
2023/04/13 10:11:16;;;;;;;10.68;2.35;;;;;;;14.00;52.71;100130.81;4920589;28;123288;-74
2023/04/13 10:14:01;;;;;;;12.00;2.05;;;;;;;14.00;52.75;100136.13;4925774;28;120207;-75
2023/04/13 10:16:53;;;;;;;8.32;2.05;;;;;;;14.05;52.98;100138.47;4924771;28;120346;-74
2023/04/13 10:19:23;;;;;;;8.45;1.70;;;;;;;14.09;52.69;100135.50;4899195;28;123866;-75
2023/04/13 10:21:55;;;;;;;8.80;1.77;;;;;;;14.16;52.89;100147.38;4915182;28;124355;-74
2023/04/13 10:24:22;;;;;;;8.98;1.90;;;;;;;14.28;52.78;100150.13;4923839;28;119859;-73
2023/04/13 10:26:53;;;;;;;9.82;1.83;;;;;;;14.37;52.67;100154.78;4919307;28;120317;-73
2023/04/13 10:29:31;;;;;;;16.67;2.42;;;;;;;14.48;52.61;100146.88;4920373;28;123800;-74
2023/04/13 10:32:02;;;;;;;8.45;2.00;;;;;;;14.60;52.55;100162.03;4908601;28;123755;-74
2023/04/13 10:34:39;;;;;;;9.32;2.05;;;;;;;14.74;52.53;100174.31;4930990;28;119643;-74
2023/04/13 10:37:21;;;;;;;8.88;1.80;;;;;;;14.85;52.23;100175.38;4934292;28;120279;-73
2023/04/13 10:40:03;;;;;;;9.25;1.65;;;;;;;14.93;52.05;100181.81;4911704;28;124397;-73
2023/04/13 10:42:49;;;;;;;11.20;2.03;;;;;;;14.92;51.70;100181.97;4909082;28;123258;-73
2023/04/13 10:45:25;;;;;;;8.95;1.88;;;;;;;14.86;51.25;100183.25;4930473;28;119272;-75
2023/04/13 10:47:57;;;;;;;10.98;1.70;;;;;;;14.80;51.28;100181.03;4929782;28;118106;-74
2023/04/13 10:50:28;;;;;;;10.38;2.40;;;;;;;14.81;51.53;100174.75;4925651;28;124265;-74
2023/04/13 10:53:04;;;;;;;10.43;2.60;;;;;;;14.88;51.67;100192.00;4931062;28;124313;-75
2023/04/13 10:55:33;;;;;;;9.55;2.55;;;;;;;14.97;51.60;100186.00;4925675;28;119128;-74
2023/04/13 10:58:12;;;;;;;8.25;2.33;;;;;;;15.08;51.64;100187.00;4931013;28;118840;-72
2023/04/13 11:00:43;;;;;;;12.15;2.35;;;;;;;15.15;51.46;100193.56;4935802;28;124731;-72
2023/04/13 11:06:02;;;;;;;9.05;2.42;;;;;;;15.20;50.86;100207.44;4936163;28;118534;-74
2023/04/13 11:08:38;;;;;;;9.45;2.33;;;;;;;15.18;50.48;100215.53;4919029;28;118548;-74
2023/04/13 11:11:05;;;;;;;13.10;2.85;;;;;;;15.12;50.41;100217.81;4936781;28;124004;-72
2023/04/13 11:13:42;;;;;;;10.27;2.92;;;;;;;15.08;50.38;100217.19;4932039;28;123500;-75
2023/04/13 11:16:09;;;;;;;10.40;3.42;;;;;;;15.06;50.34;100215.59;4937011;28;120823;-74
2023/04/13 11:18:39;;;;;;;9.25;2.90;;;;;;;15.03;50.29;100227.34;4938155;28;119688;-75
2023/04/13 11:21:17;;;;;;;11.43;3.30;;;;;;;15.03;50.42;100231.81;4927313;28;123625;-73
2023/04/13 11:23:52;;;;;;;12.43;3.40;;;;;;;15.01;50.31;100233.75;4926517;28;124219;-74
2023/04/13 11:26:32;;;;;;;10.50;2.60;;;;;;;15.01;50.16;100239.06;4915309;28;118510;-76
2023/04/13 11:29:02;;;;;;;7.60;2.40;;;;;;;15.02;50.29;100246.97;4927212;28;118787;-75
2023/04/13 11:31:38;;;;;;;9.88;2.67;;;;;;;15.03;50.06;100242.47;4932365;28;124465;-75
2023/04/13 11:34:25;;;;;;;9.95;1.80;;;;;;;15.01;50.09;100233.75;4928404;28;124392;-73
2023/04/13 11:37:00;;;;;;;11.18;2.17;;;;;;;15.01;49.98;100233.75;4941461;28;119156;-73
2023/04/13 11:39:30;;;;;;;8.18;1.90;;;;;;;15.04;50.10;100246.88;4929851;28;119035;-74
2023/04/13 11:42:05;;;;;;;6.78;1.85;;;;;;;15.09;50.34;100247.38;4929102;28;124118;-73
2023/04/13 11:44:34;;;;;;;9.43;1.85;;;;;;;15.17;50.37;100245.84;4907161;28;123959;-73
2023/04/13 11:47:02;;;;;;;7.55;1.65;;;;;;;15.32;50.29;100257.19;4929336;28;118186;-73
2023/04/13 11:49:30;;;;;;;7.93;1.48;;;;;;;15.44;50.20;100257.25;4933637;28;119186;-72
2023/04/13 11:52:00;;;;;;;8.60;1.85;;;;;;;15.59;49.97;100250.75;4929204;28;123821;-72
2023/04/13 11:54:28;;;;;;;8.68;2.20;;;;;;;15.70;49.47;100250.78;4932008;28;123532;-73